Hovedside
METAR-TAF:

METAR-TAF

Lufthavner :

Ørsta-Volda, Norge

Ørsta/Volda lufthamn

breddegrad: 62-11N, lengdegrad: 006-04E, høyde over havet: 7 m

Gjeldene værobservasjon

Denne rapporten ble laget for 1 time og 4 minutter siden, klokken 17:50 UTC
Vind 1 kt fra skiftende retning
Temperatur 12°C
Luftfuktighet 88%
Trykk 1022 hPa
Sikt 10 km eller mer
Få skyer i en høyde av 4000 ft
Spredte skyer i en høyde av 5500 ft
Brutte skyer i en høyde av 6500 ft
lett regn

METAR: ENOV 221750Z VRB01KT 9999 -RA FEW040 SCT055 BKN065 12/10 Q1022 RMK WIND 2175FT 13020KT

Tid: 20:54 (18:54 UTC)


TAF: fraværende

Værobservasjoner og værvarsel for over 4000 flyplasser (METAR- og TAF-rapporter).

Tilgjengelige stasjoner er representert av de røde og gule prikkene på kartet.

Hold musepekeren over prikken for å se navnet på stasjonen.

Klikk så for å se værobservasjoner og -varsler.

For å forandre kartet kan du klikke på den grønne knappen med svart kryss for å zoome inn, på den grønne knappen med strek for å zoome ut, eller på de grønne pilene for å se tilstøtende kart.


METAR-TAF: